Time;durP1;ratioP1;P1;durP2;ratioP2;P2;SDS_P1;SDS_P2;PMS_P1;PMS_P2;Temp;Humidity;BMP_temperature;BMP_pressure;BME280_temperature;BME280_humidity;BME280_pressure;Samples;Min_cycle;Max_cycle;Signal;HPM_P1;HPM_P2
2022/07/31 00:02:45;;;;;;;39.33;22.73;;;15.60;99.90;;;;;;4367633;28;656040;-64
2022/07/31 00:05:32;;;;;;;27.80;18.10;;;15.60;99.90;;;;;;4341359;28;657027;-63
2022/07/31 00:08:19;;;;;;;30.70;19.40;;;15.60;99.90;;;;;;4374971;28;656162;-64
2022/07/31 00:11:10;;;;;;;32.60;18.53;;;15.50;99.90;;;;;;4348518;28;656302;-64
2022/07/31 00:13:57;;;;;;;24.70;16.90;;;15.50;99.90;;;;;;4354216;28;656975;-63
2022/07/31 00:16:45;;;;;;;29.80;18.43;;;15.50;99.90;;;;;;4363701;28;656734;-63
2022/07/31 00:19:33;;;;;;;32.93;18.33;;;15.50;99.90;;;;;;4342309;28;657047;-64
2022/07/31 00:22:20;;;;;;;31.27;13.70;;;15.50;99.90;;;;;;4357130;28;656790;-65
2022/07/31 00:25:08;;;;;;;27.77;17.50;;;15.50;99.90;;;;;;4366654;28;657147;-65
2022/07/31 00:27:56;;;;;;;30.53;17.57;;;15.50;99.90;;;;;;4346715;28;656724;-64
2022/07/31 00:30:43;;;;;;;27.30;18.53;;;15.50;99.90;;;;;;4369565;28;656203;-65
2022/07/31 00:33:31;;;;;;;33.40;18.27;;;15.40;99.90;;;;;;4356767;28;656631;-64
2022/07/31 00:36:19;;;;;;;30.90;17.20;;;15.40;99.90;;;;;;4372865;28;657918;-63
2022/07/31 00:39:06;;;;;;;37.60;18.20;;;15.50;99.90;;;;;;4336537;28;657453;-64
2022/07/31 00:41:53;;;;;;;39.17;20.23;;;15.40;99.90;;;;;;4359181;28;657199;-62
2022/07/31 00:44:40;;;;;;;32.30;19.90;;;15.40;99.90;;;;;;4350070;28;656376;-64
2022/07/31 00:47:28;;;;;;;30.77;19.10;;;15.40;99.90;;;;;;4374530;28;657425;-64
2022/07/31 00:50:16;;;;;;;31.03;18.77;;;15.40;99.90;;;;;;4361263;28;656494;-65
2022/07/31 00:53:03;;;;;;;26.33;18.80;;;15.40;99.90;;;;;;4372319;28;656709;-63
2022/07/31 00:55:51;;;;;;;36.23;19.77;;;15.40;99.90;;;;;;4343415;28;656545;-63
2022/07/31 00:58:38;;;;;;;28.77;19.43;;;15.50;99.90;;;;;;4369845;28;656727;-63
2022/07/31 01:01:26;;;;;;;34.83;19.92;;;15.50;99.90;;;;;;4354992;28;656551;-64
2022/07/31 01:04:15;;;;;;;30.27;20.23;;;15.40;99.90;;;;;;4376049;28;657716;-63
2022/07/31 01:07:04;;;;;;;38.87;20.93;;;15.40;99.90;;;;;;4344217;28;658160;-63
2022/07/31 01:09:52;;;;;;;39.07;20.30;;;15.40;99.90;;;;;;4342680;28;656494;-64
2022/07/31 01:12:42;;;;;;;30.15;18.67;;;15.50;99.90;;;;;;4372907;28;656486;-64
2022/07/31 01:15:29;;;;;;;34.63;18.40;;;15.50;99.90;;;;;;4348648;28;656318;-64
2022/07/31 01:18:17;;;;;;;34.63;18.90;;;15.50;99.90;;;;;;4348085;28;656967;-64
2022/07/31 01:21:06;;;;;;;45.93;18.23;;;15.50;99.90;;;;;;4364167;28;656782;-63
2022/07/31 01:24:08;;;;;;;38.73;17.00;;;15.50;99.90;;;;;;4337456;28;657712;-64
2022/07/31 01:26:59;;;;;;;64.97;18.03;;;15.50;99.90;;;;;;4324038;28;656915;-63
2022/07/31 01:29:48;;;;;;;27.77;14.00;;;15.50;99.90;;;;;;4343759;28;656681;-64
2022/07/31 01:32:37;;;;;;;90.10;18.77;;;15.50;99.90;;;;;;4349453;28;656653;-65
2022/07/31 01:35:26;;;;;;;73.03;18.98;;;15.50;99.90;;;;;;4358372;28;656582;-63
2022/07/31 01:38:15;;;;;;;75.10;18.17;;;15.40;99.90;;;;;;4347780;28;657722;-63
2022/07/31 01:41:04;;;;;;;50.33;19.73;;;15.50;99.90;;;;;;4344175;28;658178;-63
2022/07/31 01:43:52;;;;;;;48.17;19.20;;;15.40;99.90;;;;;;4357002;28;656706;-66
2022/07/31 01:46:42;;;;;;;35.77;18.33;;;15.40;99.90;;;;;;4359351;28;656951;-65
2022/07/31 01:49:29;;;;;;;32.05;19.08;;;15.40;99.90;;;;;;4364595;28;657231;-63
2022/07/31 01:52:16;;;;;;;27.83;16.43;;;15.50;99.90;;;;;;4344219;28;656914;-64
2022/07/31 01:55:05;;;;;;;23.73;16.50;;;15.50;99.90;;;;;;4363706;28;658583;-63
2022/07/31 01:57:52;;;;;;;28.70;17.47;;;15.50;99.90;;;;;;4341981;28;657021;-64
2022/07/31 02:00:40;;;;;;;23.63;14.80;;;15.50;99.90;;;;;;4367846;28;656862;-63
2022/07/31 02:03:28;;;;;;;28.73;16.73;;;15.60;99.90;;;;;;4343268;28;658353;-63
2022/07/31 02:06:17;;;;;;;27.17;16.60;;;15.50;99.90;;;;;;4351001;28;657064;-63
2022/07/31 02:09:04;;;;;;;27.80;16.50;;;15.50;99.90;;;;;;4366058;28;657422;-64
2022/07/31 02:11:51;;;;;;;25.33;15.10;;;15.50;99.90;;;;;;4354037;28;657113;-63
2022/07/31 02:14:39;;;;;;;28.97;15.87;;;15.40;99.90;;;;;;4369462;28;657728;-63
2022/07/31 02:17:26;;;;;;;26.47;14.47;;;15.40;99.90;;;;;;4351203;28;656501;-63
2022/07/31 02:20:15;;;;;;;23.40;13.43;;;15.50;99.90;;;;;;4365072;28;657775;-64
2022/07/31 02:23:02;;;;;;;24.50;14.40;;;15.50;99.90;;;;;;4344285;28;657877;-63
2022/07/31 02:25:49;;;;;;;22.27;13.50;;;15.50;99.90;;;;;;4368844;28;656091;-64
2022/07/31 02:28:37;;;;;;;19.98;11.80;;;15.50;99.90;;;;;;4349056;28;656352;-64
2022/07/31 02:31:24;;;;;;;17.60;11.93;;;15.50;99.90;;;;;;4369756;28;657786;-63
2022/07/31 02:34:12;;;;;;;17.07;11.70;;;15.60;99.90;;;;;;4346940;28;656494;-63
2022/07/31 02:37:00;;;;;;;18.60;11.30;;;15.50;99.90;;;;;;4364066;28;657150;-63
2022/07/31 02:39:48;;;;;;;17.07;10.13;;;15.50;99.90;;;;;;4343233;28;657459;-65
2022/07/31 02:42:35;;;;;;;14.33;9.53;;;15.50;99.90;;;;;;4354768;28;656481;-64
2022/07/31 02:45:22;;;;;;;13.60;8.83;;;15.50;99.90;;;;;;4370444;28;655675;-64
2022/07/31 02:48:09;;;;;;;11.40;7.60;;;15.60;99.90;;;;;;4364693;28;656882;-63
2022/07/31 02:50:56;;;;;;;9.77;6.90;;;15.60;99.90;;;;;;4348734;28;655302;-64
2022/07/31 02:53:45;;;;;;;7.20;5.23;;;15.60;99.90;;;;;;4369473;28;654444;-63
2022/07/31 02:56:32;;;;;;;7.77;5.60;;;15.50;99.90;;;;;;4353923;28;654799;-63
2022/07/31 02:59:20;;;;;;;5.73;4.57;;;15.60;99.90;;;;;;4374369;28;655481;-65
2022/07/31 03:02:07;;;;;;;4.90;3.60;;;15.60;99.90;;;;;;4347442;28;655452;-64
2022/07/31 03:04:55;;;;;;;3.40;3.10;;;15.60;99.90;;;;;;4363065;28;654562;-65
2022/07/31 03:07:42;;;;;;;3.20;2.77;;;15.60;99.90;;;;;;4372011;28;654529;-63
2022/07/31 03:10:31;;;;;;;3.30;2.60;;;15.60;99.90;;;;;;4373850;28;655346;-64
2022/07/31 03:13:18;;;;;;;2.50;1.97;;;15.50;99.90;;;;;;4354083;28;656500;-63
2022/07/31 03:16:06;;;;;;;3.40;1.60;;;15.40;99.90;;;;;;4351414;28;655493;-63
2022/07/31 03:18:53;;;;;;;1.40;1.23;;;15.50;99.90;;;;;;4366571;28;654849;-65
2022/07/31 03:21:40;;;;;;;4.27;1.67;;;15.40;99.90;;;;;;4355191;28;654513;-63
2022/07/31 03:24:28;;;;;;;2.23;2.03;;;15.40;99.90;;;;;;4366720;28;656269;-64
2022/07/31 03:27:16;;;;;;;3.85;1.92;;;15.30;99.90;;;;;;4358142;28;655466;-64
2022/07/31 03:30:05;;;;;;;6.60;2.60;;;15.30;99.90;;;;;;4368185;28;654561;-64
2022/07/31 03:32:52;;;;;;;3.03;2.50;;;15.30;99.90;;;;;;4349536;28;654914;-64
2022/07/31 03:35:39;;;;;;;4.53;2.90;;;15.30;99.90;;;;;;4367123;28;654941;-64
2022/07/31 03:38:26;;;;;;;3.50;3.03;;;15.30;99.90;;;;;;4341471;28;654661;-64
2022/07/31 03:41:14;;;;;;;5.00;3.47;;;15.20;99.90;;;;;;4367639;28;654401;-64
2022/07/31 03:44:02;;;;;;;2.73;2.50;;;15.30;99.90;;;;;;4351000;28;654099;-64
2022/07/31 03:46:49;;;;;;;6.77;4.00;;;15.30;99.90;;;;;;4367172;28;654288;-65
2022/07/31 03:49:36;;;;;;;4.47;4.07;;;15.20;99.90;;;;;;4353392;28;654992;-64
2022/07/31 03:52:23;;;;;;;6.87;4.57;;;15.10;99.90;;;;;;4369941;28;655092;-63
2022/07/31 03:55:10;;;;;;;5.87;4.07;;;15.10;99.90;;;;;;4340601;28;655327;-63
2022/07/31 03:57:58;;;;;;;6.43;4.57;;;15.10;99.90;;;;;;4358324;28;656202;-63
2022/07/31 04:00:46;;;;;;;5.43;4.53;;;15.10;99.90;;;;;;4364721;28;654191;-66
2022/07/31 04:03:34;;;;;;;7.53;4.10;;;15.10;99.90;;;;;;4371689;28;654839;-63
2022/07/31 04:06:21;;;;;;;8.87;4.23;;;15.20;99.90;;;;;;4356175;28;655159;-64
2022/07/31 04:09:08;;;;;;;9.63;6.83;;;15.20;99.90;;;;;;4371487;28;655409;-63
2022/07/31 04:11:55;;;;;;;7.27;5.57;;;15.00;99.90;;;;;;4363671;28;655283;-65
2022/07/31 04:14:42;;;;;;;11.77;6.27;;;15.00;99.90;;;;;;4372430;28;654726;-63
2022/07/31 04:17:31;;;;;;;9.57;6.00;;;15.10;99.90;;;;;;4364429;28;655995;-65
2022/07/31 04:20:20;;;;;;;10.13;6.00;;;15.10;99.90;;;;;;4346825;28;655116;-63
2022/07/31 04:23:07;;;;;;;6.97;5.07;;;15.00;99.90;;;;;;4348411;28;656453;-64
2022/07/31 04:25:54;;;;;;;10.23;5.27;;;15.00;99.90;;;;;;4376331;28;654412;-64
2022/07/31 04:28:41;;;;;;;5.77;4.33;;;15.10;99.90;;;;;;4350285;28;655623;-64
2022/07/31 04:31:28;;;;;;;7.00;4.40;;;15.10;99.90;;;;;;4381141;28;654882;-63
2022/07/31 04:34:17;;;;;;;8.17;5.10;;;15.10;99.90;;;;;;4353996;28;654522;-64
2022/07/31 04:37:04;;;;;;;8.50;5.53;;;15.10;99.90;;;;;;4373375;28;654177;-64
2022/07/31 04:39:51;;;;;;;6.57;3.93;;;15.10;99.90;;;;;;4356505;28;654309;-65
2022/07/31 04:42:38;;;;;;;6.00;3.87;;;15.10;99.90;;;;;;4370558;28;655253;-64
2022/07/31 04:45:25;;;;;;;7.70;4.07;;;15.10;99.90;;;;;;4354675;28;654499;-66
2022/07/31 04:48:13;;;;;;;5.60;4.17;;;15.10;99.90;;;;;;4371115;28;655664;-65
2022/07/31 04:51:01;;;;;;;9.97;4.80;;;15.10;99.90;;;;;;4359605;28;654720;-65
2022/07/31 04:53:49;;;;;;;6.53;4.10;;;15.10;99.90;;;;;;4369723;28;655103;-64
2022/07/31 04:56:40;;;;;;;6.33;4.17;;;15.10;99.90;;;;;;4352301;28;655346;-63
2022/07/31 04:59:27;;;;;;;6.03;3.60;;;15.00;99.90;;;;;;4343417;28;655811;-63
2022/07/31 05:02:15;;;;;;;6.17;3.03;;;15.10;99.90;;;;;;4366586;28;656169;-65
2022/07/31 05:05:02;;;;;;;7.03;3.60;;;15.10;99.90;;;;;;4370911;28;655266;-64
2022/07/31 05:07:51;;;;;;;5.20;3.87;;;15.00;99.90;;;;;;4361738;28;654630;-65
2022/07/31 05:13:43;;;;;;;2.87;2.23;;;15.00;99.90;;;;;;4348409;28;655270;-63
2022/07/31 05:16:30;;;;;;;4.73;2.03;;;15.00;99.90;;;;;;4346450;28;654680;-64
2022/07/31 05:19:18;;;;;;;5.17;2.47;;;15.00;99.90;;;;;;4366299;28;655387;-65
2022/07/31 05:22:05;;;;;;;2.93;2.27;;;15.00;99.90;;;;;;4358928;28;655015;-64
2022/07/31 05:24:54;;;;;;;2.13;1.90;;;15.00;99.90;;;;;;4371684;28;655748;-64
2022/07/31 05:27:41;;;;;;;2.63;2.17;;;15.00;99.90;;;;;;4350908;28;654312;-63
2022/07/31 05:30:28;;;;;;;4.37;2.73;;;15.00;99.90;;;;;;4365469;28;655854;-63
2022/07/31 05:33:15;;;;;;;4.13;2.53;;;14.80;99.90;;;;;;4350897;28;654876;-65
2022/07/31 05:36:04;;;;;;;3.10;1.83;;;14.80;99.90;;;;;;4370945;28;654429;-63
2022/07/31 05:38:51;;;;;;;3.17;2.20;;;14.90;99.90;;;;;;4333954;28;654263;-64
2022/07/31 05:41:40;;;;;;;2.47;2.03;;;14.80;99.90;;;;;;4368099;28;655964;-63
2022/07/31 05:44:27;;;;;;;3.17;1.87;;;14.90;99.90;;;;;;4348233;28;657017;-64
2022/07/31 05:47:14;;;;;;;1.80;1.70;;;14.90;99.90;;;;;;4366175;28;655688;-64
2022/07/31 05:50:03;;;;;;;2.97;1.90;;;14.90;99.90;;;;;;4348815;28;655679;-64
2022/07/31 05:52:50;;;;;;;1.73;1.43;;;15.00;99.90;;;;;;4345971;28;656220;-65
2022/07/31 05:55:38;;;;;;;3.93;1.50;;;15.00;99.90;;;;;;4369280;28;655716;-64
2022/07/31 05:58:26;;;;;;;1.77;1.67;;;15.00;99.90;;;;;;4356457;28;655533;-64
2022/07/31 06:01:14;;;;;;;1.70;1.50;;;14.90;99.90;;;;;;4371884;28;654615;-64
2022/07/31 06:04:01;;;;;;;2.23;1.90;;;15.00;99.90;;;;;;4346246;28;655294;-65
2022/07/31 06:06:48;;;;;;;3.53;2.13;;;15.00;99.90;;;;;;4367044;28;656081;-64
2022/07/31 06:09:35;;;;;;;3.53;1.92;;;15.00;99.90;;;;;;4345710;28;656176;-64
2022/07/31 06:12:22;;;;;;;2.83;1.87;;;15.00;99.90;;;;;;4374433;28;656515;-64
2022/07/31 06:15:11;;;;;;;3.87;2.03;;;15.00;99.90;;;;;;4366424;28;654866;-64
2022/07/31 06:17:59;;;;;;;1.53;1.23;;;15.00;99.90;;;;;;4345517;28;656770;-64
2022/07/31 06:20:46;;;;;;;3.60;1.17;;;15.10;99.90;;;;;;4347640;28;655698;-66
2022/07/31 06:23:33;;;;;;;1.57;1.00;;;15.10;99.90;;;;;;4373582;28;655905;-66
2022/07/31 06:26:20;;;;;;;0.73;0.50;;;15.20;99.90;;;;;;4364435;28;655918;-65
2022/07/31 06:29:07;;;;;;;0.53;0.53;;;15.00;99.90;;;;;;4381343;28;655970;-64
2022/07/31 06:31:56;;;;;;;1.53;0.50;;;14.90;99.90;;;;;;4378390;28;656000;-64
2022/07/31 06:34:43;;;;;;;0.60;0.60;;;14.90;99.90;;;;;;4353438;28;657150;-63
2022/07/31 06:37:30;;;;;;;0.83;0.80;;;14.80;99.90;;;;;;4353190;28;655418;-64
2022/07/31 06:40:18;;;;;;;2.00;1.10;;;14.90;99.90;;;;;;4372140;28;657414;-65
2022/07/31 06:43:05;;;;;;;3.43;1.13;;;14.70;99.90;;;;;;4359278;28;655726;-65
2022/07/31 06:45:52;;;;;;;1.50;1.30;;;14.70;99.90;;;;;;4377595;28;655591;-63
2022/07/31 06:48:41;;;;;;;4.17;1.53;;;14.70;99.90;;;;;;4431742;28;655869;-66
2022/07/31 06:51:28;;;;;;;3.27;1.30;;;14.60;99.90;;;;;;4357270;28;657066;-66
2022/07/31 06:54:15;;;;;;;1.30;1.00;;;14.60;99.90;;;;;;4363652;28;655485;-68
2022/07/31 06:57:02;;;;;;;1.67;1.10;;;14.60;99.90;;;;;;4375754;28;656729;-67
2022/07/31 06:59:49;;;;;;;1.50;1.20;;;14.60;99.90;;;;;;4378519;28;655839;-67
2022/07/31 07:02:37;;;;;;;1.50;1.40;;;14.40;99.90;;;;;;4348453;28;655899;-67
2022/07/31 07:05:25;;;;;;;1.43;1.33;;;14.40;99.90;;;;;;4378399;28;656312;-67
2022/07/31 07:08:12;;;;;;;2.70;1.00;;;14.40;99.90;;;;;;4352989;28;656805;-66
2022/07/31 07:11:00;;;;;;;3.33;1.37;;;14.30;99.90;;;;;;4358599;28;655208;-67
2022/07/31 07:13:47;;;;;;;1.20;1.10;;;14.30;99.90;;;;;;4377965;28;655383;-67
2022/07/31 07:16:34;;;;;;;1.20;1.10;;;14.30;99.90;;;;;;4374155;28;655507;-68
2022/07/31 07:19:21;;;;;;;2.77;1.23;;;14.30;99.90;;;;;;4356364;28;656274;-68
2022/07/31 07:22:10;;;;;;;2.10;1.20;;;14.30;99.90;;;;;;4375494;28;655297;-66
2022/07/31 07:24:57;;;;;;;1.20;1.10;;;14.30;99.90;;;;;;4343313;28;657114;-69
2022/07/31 07:27:44;;;;;;;1.13;1.10;;;14.20;99.90;;;;;;4383440;28;655277;-66
2022/07/31 07:30:31;;;;;;;1.00;1.00;;;14.20;99.90;;;;;;4359886;28;655437;-66
2022/07/31 07:33:18;;;;;;;2.30;1.40;;;14.20;99.90;;;;;;4378577;28;657202;-66
2022/07/31 07:36:06;;;;;;;1.00;1.00;;;14.30;99.90;;;;;;4358746;28;655532;-67
2022/07/31 07:38:54;;;;;;;1.80;1.23;;;14.30;99.90;;;;;;4367575;28;655125;-66
2022/07/31 07:41:41;;;;;;;1.23;1.13;;;14.20;99.90;;;;;;4352372;28;655629;-68
2022/07/31 07:44:28;;;;;;;1.20;1.00;;;14.30;99.90;;;;;;4379355;28;655693;-66
2022/07/31 07:47:15;;;;;;;1.23;0.83;;;14.30;99.90;;;;;;4359716;28;655988;-68
2022/07/31 07:50:03;;;;;;;1.07;1.07;;;14.30;99.90;;;;;;4377064;28;656937;-66
2022/07/31 07:52:50;;;;;;;1.38;1.20;;;14.20;99.90;;;;;;4359390;28;655775;-68
2022/07/31 07:55:39;;;;;;;2.23;1.00;;;14.20;99.90;;;;;;4377946;28;655962;-66
2022/07/31 07:58:26;;;;;;;1.33;1.20;;;14.30;99.90;;;;;;4354703;28;655869;-68
2022/07/31 08:01:13;;;;;;;1.60;1.50;;;14.30;99.90;;;;;;4379493;28;655131;-67
2022/07/31 08:04:00;;;;;;;2.40;1.50;;;14.40;99.90;;;;;;4355410;28;655376;-68
2022/07/31 08:06:47;;;;;;;1.80;0.83;;;14.30;99.90;;;;;;4370762;28;656704;-66
2022/07/31 08:09:35;;;;;;;1.30;0.80;;;14.40;99.90;;;;;;4381684;28;655436;-68
2022/07/31 08:12:24;;;;;;;1.87;1.30;;;14.40;99.90;;;;;;4370146;28;656763;-67
2022/07/31 08:15:11;;;;;;;2.10;1.40;;;14.30;99.90;;;;;;4350341;28;655446;-67
2022/07/31 08:17:58;;;;;;;1.63;1.30;;;14.40;99.90;;;;;;4374017;28;656685;-67
2022/07/31 08:20:45;;;;;;;4.60;1.30;;;14.40;99.90;;;;;;4352013;28;655541;-67
2022/07/31 08:23:32;;;;;;;1.40;1.30;;;14.50;99.90;;;;;;4370604;28;656530;-67
2022/07/31 08:26:19;;;;;;;1.33;1.23;;;14.50;99.90;;;;;;4372564;28;655662;-67
2022/07/31 08:29:08;;;;;;;1.97;1.50;;;14.50;99.90;;;;;;4355032;28;655794;-66
2022/07/31 08:31:55;;;;;;;1.47;1.30;;;14.40;99.90;;;;;;4346027;28;655635;-67
2022/07/31 08:34:42;;;;;;;2.27;1.80;;;14.40;99.90;;;;;;4377318;28;656024;-67
2022/07/31 08:37:29;;;;;;;2.10;1.90;;;14.20;99.90;;;;;;4364813;28;655535;-67
2022/07/31 08:40:17;;;;;;;4.17;1.97;;;14.30;99.90;;;;;;4350040;28;655660;-66
2022/07/31 08:43:04;;;;;;;1.70;1.60;;;14.40;99.90;;;;;;4363817;28;656212;-66
2022/07/31 08:45:53;;;;;;;1.77;1.67;;;14.40;99.90;;;;;;4343905;28;655964;-66
2022/07/31 08:48:41;;;;;;;1.93;1.70;;;14.30;99.90;;;;;;4354324;28;656031;-67
2022/07/31 08:51:28;;;;;;;1.60;1.50;;;14.40;99.90;;;;;;4363713;28;656636;-66
2022/07/31 08:54:15;;;;;;;1.97;1.87;;;14.30;99.90;;;;;;4346792;28;655616;-67
2022/07/31 08:57:02;;;;;;;2.17;1.73;;;14.30;99.90;;;;;;4371194;28;656262;-66
2022/07/31 08:59:51;;;;;;;2.03;1.93;;;14.30;99.90;;;;;;4364748;28;656015;-67
2022/07/31 09:02:40;;;;;;;2.97;2.13;;;14.30;99.90;;;;;;4370508;28;656908;-66
2022/07/31 09:05:27;;;;;;;3.63;2.10;;;14.40;99.90;;;;;;4345209;28;657444;-66
2022/07/31 09:08:14;;;;;;;2.07;1.97;;;14.40;99.90;;;;;;4360035;28;655468;-66
2022/07/31 09:11:02;;;;;;;2.00;1.90;;;14.30;99.90;;;;;;4348118;28;655741;-66
2022/07/31 09:13:53;;;;;;;2.27;2.00;;;14.30;99.90;;;;;;4356739;28;655675;-67
2022/07/31 09:16:47;;;;;;;2.00;1.90;;;14.40;99.90;;;;;;4347310;28;655247;-67
2022/07/31 09:19:38;;;;;;;2.80;2.10;;;14.40;99.90;;;;;;4366976;28;655974;-68
2022/07/31 09:22:26;;;;;;;2.27;2.07;;;14.40;99.90;;;;;;4351521;28;655498;-67
2022/07/31 09:25:17;;;;;;;2.10;1.90;;;14.60;99.90;;;;;;4348752;28;656373;-67
2022/07/31 09:28:05;;;;;;;2.07;1.87;;;14.50;99.90;;;;;;4348613;28;654943;-67
2022/07/31 09:30:55;;;;;;;4.10;2.10;;;14.60;99.90;;;;;;4343429;28;656739;-66
2022/07/31 09:33:45;;;;;;;1.50;1.40;;;14.60;99.90;;;;;;4344037;28;656756;-66
2022/07/31 09:36:33;;;;;;;2.13;1.73;;;14.80;99.90;;;;;;4343966;28;656627;-65
2022/07/31 09:39:21;;;;;;;1.47;1.37;;;14.80;99.90;;;;;;4332128;28;655376;-66
2022/07/31 09:42:08;;;;;;;1.70;1.40;;;14.90;99.90;;;;;;4366726;28;656934;-65
2022/07/31 09:44:55;;;;;;;1.50;1.17;;;14.70;99.90;;;;;;4351178;28;655800;-68
2022/07/31 09:47:42;;;;;;;1.20;1.13;;;14.90;99.90;;;;;;4346502;28;656702;-65
2022/07/31 09:50:30;;;;;;;1.20;1.10;;;14.80;99.90;;;;;;4360094;28;656127;-68
2022/07/31 09:53:19;;;;;;;1.10;1.10;;;14.70;99.90;;;;;;4362299;28;656026;-65
2022/07/31 09:56:07;;;;;;;1.33;1.23;;;14.60;99.90;;;;;;4347227;28;655567;-65
2022/07/31 09:58:54;;;;;;;2.13;1.10;;;14.60;99.90;;;;;;4359685;28;655741;-66
2022/07/31 10:01:41;;;;;;;1.27;1.17;;;14.50;99.90;;;;;;4345661;28;656032;-67
2022/07/31 10:04:28;;;;;;;1.23;1.20;;;14.50;99.90;;;;;;4355348;28;656319;-66
2022/07/31 10:07:16;;;;;;;1.50;1.40;;;14.60;99.90;;;;;;4347942;28;655923;-67
2022/07/31 10:10:06;;;;;;;1.52;1.40;;;14.50;99.90;;;;;;4369281;28;656191;-66
2022/07/31 10:12:54;;;;;;;1.50;1.40;;;14.80;99.90;;;;;;4345941;28;655203;-66
2022/07/31 10:15:42;;;;;;;1.77;1.57;;;14.90;99.90;;;;;;4349753;28;655852;-67
2022/07/31 10:18:31;;;;;;;1.57;1.47;;;14.80;99.90;;;;;;4369799;28;655760;-67
2022/07/31 10:21:18;;;;;;;1.83;1.70;;;14.70;99.90;;;;;;4371074;28;656845;-66
2022/07/31 10:24:06;;;;;;;1.83;1.70;;;14.70;99.90;;;;;;4343871;28;655505;-67
2022/07/31 10:26:55;;;;;;;1.77;1.67;;;14.60;99.90;;;;;;4356321;28;656313;-66
2022/07/31 10:29:42;;;;;;;1.70;1.60;;;14.80;99.90;;;;;;4349459;28;656050;-66
2022/07/31 10:32:29;;;;;;;2.15;1.48;;;14.90;99.90;;;;;;4359555;28;655808;-67
2022/07/31 10:35:16;;;;;;;1.10;1.10;;;14.80;99.90;;;;;;4337753;28;656263;-66
2022/07/31 10:38:06;;;;;;;1.53;1.43;;;14.80;99.90;;;;;;4352540;28;656560;-67
2022/07/31 10:40:56;;;;;;;3.33;1.27;;;14.80;99.90;;;;;;4341161;28;655772;-66
2022/07/31 10:43:46;;;;;;;0.77;0.77;;;14.80;99.90;;;;;;4332118;28;655752;-66
2022/07/31 10:46:34;;;;;;;1.23;1.10;;;14.80;99.90;;;;;;4340913;28;655812;-66
2022/07/31 10:49:39;;;;;;;1.70;1.13;;;14.90;99.90;;;;;;4344887;28;655706;-66
2022/07/31 10:52:27;;;;;;;1.10;0.93;;;14.70;99.90;;;;;;4317102;28;655825;-66
2022/07/31 10:55:15;;;;;;;1.20;1.10;;;14.70;99.90;;;;;;4370202;28;655301;-66
2022/07/31 10:58:09;;;;;;;0.90;0.77;;;14.80;99.90;;;;;;4335844;28;656688;-66
2022/07/31 11:01:07;;;;;;;1.00;0.90;;;14.80;99.90;;;;;;4346551;28;655523;-67
2022/07/31 11:04:00;;;;;;;1.00;1.00;;;14.90;99.90;;;;;;4337886;28;655816;-67
2022/07/31 11:06:49;;;;;;;1.00;1.00;;;14.70;99.90;;;;;;4345013;28;656582;-66
2022/07/31 11:09:36;;;;;;;5.17;1.27;;;14.80;99.90;;;;;;4340693;28;655431;-66
2022/07/31 11:12:24;;;;;;;1.30;1.20;;;14.70;99.90;;;;;;4363570;28;656216;-67
2022/07/31 11:15:22;;;;;;;1.40;1.30;;;14.70;99.90;;;;;;4346137;28;655117;-66
2022/07/31 11:18:14;;;;;;;2.10;1.20;;;14.70;99.90;;;;;;4335115;28;655533;-66
2022/07/31 11:21:01;;;;;;;2.95;1.30;;;14.70;99.90;;;;;;4344024;28;655817;-66
2022/07/31 11:23:48;;;;;;;2.50;1.30;;;14.80;99.90;;;;;;4365739;28;656250;-67
2022/07/31 11:26:36;;;;;;;1.13;1.03;;;14.60;99.90;;;;;;4346969;28;655378;-66
2022/07/31 11:29:27;;;;;;;1.87;1.40;;;14.70;99.90;;;;;;4373096;28;656567;-66
2022/07/31 11:32:14;;;;;;;1.30;1.20;;;14.60;99.90;;;;;;4340844;28;655869;-67
2022/07/31 11:35:03;;;;;;;1.30;1.03;;;14.80;99.90;;;;;;4341265;28;656162;-66
2022/07/31 11:37:51;;;;;;;0.77;0.77;;;14.70;99.90;;;;;;4340531;28;655059;-66
2022/07/31 11:40:38;;;;;;;1.30;1.00;;;14.70;99.90;;;;;;4366701;28;656980;-65
2022/07/31 11:43:25;;;;;;;0.93;0.93;;;14.60;99.90;;;;;;4342769;28;655813;-67
2022/07/31 11:46:12;;;;;;;0.80;0.80;;;14.60;99.90;;;;;;4373059;28;656448;-66
2022/07/31 11:49:00;;;;;;;1.70;0.93;;;14.80;99.90;;;;;;4354889;28;656160;-66
2022/07/31 11:51:49;;;;;;;0.83;0.83;;;14.80;99.90;;;;;;4333162;28;656017;-66
2022/07/31 11:54:36;;;;;;;1.43;0.70;;;14.80;99.90;;;;;;4348017;28;655513;-68
2022/07/31 11:57:23;;;;;;;0.83;0.80;;;14.90;99.90;;;;;;4349190;28;656097;-67
2022/07/31 12:00:12;;;;;;;2.63;1.10;;;15.00;99.90;;;;;;4337069;28;656521;-67
2022/07/31 12:02:59;;;;;;;1.30;1.20;;;14.80;99.90;;;;;;4365450;28;654895;-66
2022/07/31 12:05:47;;;;;;;1.40;1.30;;;14.80;99.90;;;;;;4349256;28;657165;-67
2022/07/31 12:08:35;;;;;;;1.20;1.10;;;14.80;99.90;;;;;;4372543;28;655768;-66
2022/07/31 12:11:22;;;;;;;0.97;0.90;;;14.80;99.90;;;;;;4338580;28;657444;-67
2022/07/31 12:14:12;;;;;;;1.27;1.17;;;14.80;99.90;;;;;;4363090;28;655972;-68
2022/07/31 12:16:59;;;;;;;1.30;1.20;;;14.80;99.90;;;;;;4367433;28;656839;-67
2022/07/31 12:19:46;;;;;;;1.30;1.20;;;14.80;99.90;;;;;;4346055;28;656040;-67
2022/07/31 12:22:33;;;;;;;2.10;1.40;;;14.90;99.90;;;;;;4366150;28;656391;-66
2022/07/31 12:25:22;;;;;;;1.27;1.17;;;14.90;99.90;;;;;;4351052;28;655721;-68
2022/07/31 12:28:09;;;;;;;1.30;1.20;;;14.90;99.90;;;;;;4367223;28;655607;-67
2022/07/31 12:30:58;;;;;;;1.40;1.30;;;14.80;99.90;;;;;;4350516;28;655779;-67
2022/07/31 12:33:45;;;;;;;2.10;1.30;;;14.90;99.90;;;;;;4351372;28;655193;-68
2022/07/31 12:36:32;;;;;;;1.70;1.57;;;14.90;99.90;;;;;;4371590;28;655314;-68
2022/07/31 12:39:19;;;;;;;1.57;1.40;;;14.90;99.90;;;;;;4350358;28;656021;-67
2022/07/31 12:42:08;;;;;;;2.03;1.70;;;14.90;99.90;;;;;;4348901;28;655532;-68
2022/07/31 12:44:56;;;;;;;1.80;1.70;;;14.80;99.90;;;;;;4350113;28;656190;-68
2022/07/31 12:47:44;;;;;;;2.60;2.20;;;14.90;99.90;;;;;;4366829;28;656001;-68
2022/07/31 12:50:31;;;;;;;2.40;2.20;;;14.80;99.90;;;;;;4324591;28;655440;-68
2022/07/31 12:53:18;;;;;;;2.17;1.97;;;14.90;99.90;;;;;;4355554;28;655496;-67
2022/07/31 12:56:10;;;;;;;2.90;2.40;;;15.00;99.90;;;;;;4346306;28;656457;-67
2022/07/31 12:59:01;;;;;;;3.40;3.10;;;14.90;99.90;;;;;;4346484;28;657253;-67
2022/07/31 13:01:48;;;;;;;3.73;3.43;;;14.90;99.90;;;;;;4339201;28;655549;-68
2022/07/31 13:04:35;;;;;;;4.43;4.03;;;14.90;99.90;;;;;;4357616;28;655594;-68
2022/07/31 13:07:22;;;;;;;4.20;3.80;;;14.90;99.90;;;;;;4370582;28;656011;-68
2022/07/31 13:10:09;;;;;;;4.77;4.10;;;14.90;99.90;;;;;;4369147;28;655891;-66
2022/07/31 13:12:56;;;;;;;7.37;5.90;;;14.80;99.90;;;;;;4347693;28;656659;-66
2022/07/31 13:15:45;;;;;;;7.13;5.83;;;14.90;99.90;;;;;;4364084;28;655766;-66
2022/07/31 13:18:34;;;;;;;7.50;6.67;;;14.90;99.90;;;;;;4342558;28;656936;-67
2022/07/31 13:21:21;;;;;;;11.97;9.70;;;14.90;99.90;;;;;;4348444;28;656090;-67
2022/07/31 13:24:08;;;;;;;10.63;9.48;;;14.90;99.90;;;;;;4369142;28;657109;-68
2022/07/31 13:26:57;;;;;;;11.70;9.23;;;14.80;99.90;;;;;;4350515;28;656830;-68
2022/07/31 13:29:44;;;;;;;11.00;9.80;;;14.90;99.90;;;;;;4362710;28;656741;-68
2022/07/31 13:32:33;;;;;;;9.23;8.10;;;14.90;99.90;;;;;;4347702;28;656545;-69
2022/07/31 13:35:24;;;;;;;13.13;8.90;;;15.00;99.90;;;;;;4335050;28;655708;-69
2022/07/31 13:38:13;;;;;;;10.53;7.93;;;15.10;99.90;;;;;;4338322;28;656542;-68
2022/07/31 13:44:05;;;;;;;13.20;10.70;;;15.10;99.90;;;;;;4358418;28;657531;-69
2022/07/31 13:46:52;;;;;;;12.63;10.50;;;15.00;99.90;;;;;;4439311;28;657458;-64
2022/07/31 13:49:41;;;;;;;15.33;11.80;;;15.10;99.90;;;;;;4361159;28;657363;-64
2022/07/31 13:52:28;;;;;;;13.67;10.80;;;15.00;99.90;;;;;;4339731;28;658539;-65
2022/07/31 13:55:15;;;;;;;15.10;13.27;;;15.00;99.90;;;;;;4353778;28;657675;-66
2022/07/31 13:58:02;;;;;;;14.33;12.03;;;15.10;99.90;;;;;;4373096;28;658339;-64
2022/07/31 14:00:49;;;;;;;13.93;11.70;;;15.10;99.90;;;;;;4370240;28;657556;-66
2022/07/31 14:03:37;;;;;;;19.43;14.17;;;15.10;99.90;;;;;;4348547;28;657461;-64
2022/07/31 14:06:25;;;;;;;22.90;18.37;;;15.10;99.90;;;;;;4371396;28;657608;-65
2022/07/31 14:09:12;;;;;;;20.60;13.97;;;15.20;99.90;;;;;;4345213;28;657887;-64
2022/07/31 14:12:00;;;;;;;15.90;12.67;;;15.10;99.90;;;;;;4364575;28;657447;-65
2022/07/31 14:14:47;;;;;;;15.97;13.37;;;15.20;99.90;;;;;;4367359;28;657646;-65
2022/07/31 14:17:34;;;;;;;16.40;14.50;;;15.30;99.90;;;;;;4362847;28;658137;-65
2022/07/31 14:20:21;;;;;;;10.00;7.87;;;15.30;99.90;;;;;;4343304;28;657663;-65
2022/07/31 14:23:10;;;;;;;13.53;11.07;;;15.40;99.90;;;;;;4367433;28;656862;-64